Time;durP1;ratioP1;P1;durP2;ratioP2;P2;SDS_P1;SDS_P2;PMS_P1;PMS_P2;Temp;Humidity;BMP_temperature;BMP_pressure;BME280_temperature;BME280_humidity;BME280_pressure;Samples;Min_cycle;Max_cycle;Signal;HPM_P1;HPM_P2
2024/01/05 00:01:36;;;;;;;6.37;3.23;;;9.50;99.90;;;;;;5011994;28;20196;-66
2024/01/05 00:04:02;;;;;;;7.77;3.63;;;9.50;99.90;;;;;;5006794;28;20197;-66
2024/01/05 00:06:28;;;;;;;10.63;3.50;;;9.50;99.90;;;;;;5014843;28;20268;-66
2024/01/05 00:08:54;;;;;;;10.60;3.37;;;9.50;99.90;;;;;;5017156;28;20196;-66
2024/01/05 00:11:20;;;;;;;10.53;3.60;;;9.50;99.90;;;;;;5016024;28;20443;-66
2024/01/05 00:13:46;;;;;;;8.73;3.43;;;9.50;99.90;;;;;;5016581;28;20287;-67
2024/01/05 00:16:21;;;;;;;7.53;3.00;;;9.50;99.90;;;;;;5015308;28;20778;-67
2024/01/05 00:18:47;;;;;;;9.53;3.50;;;9.50;99.90;;;;;;5015148;28;20422;-67
2024/01/05 00:21:23;;;;;;;7.80;3.70;;;9.50;99.90;;;;;;5014912;28;20424;-66
2024/01/05 00:23:50;;;;;;;9.30;3.23;;;9.50;99.90;;;;;;5018321;28;21130;-66
2024/01/05 00:26:16;;;;;;;6.53;2.87;;;9.50;99.90;;;;;;5015933;28;20442;-67
2024/01/05 00:28:43;;;;;;;9.40;3.10;;;9.50;99.90;;;;;;5011899;28;20415;-66
2024/01/05 00:31:10;;;;;;;8.00;3.80;;;9.50;99.90;;;;;;5014600;28;20422;-66
2024/01/05 00:33:36;;;;;;;7.50;3.37;;;9.40;99.90;;;;;;5013390;28;20443;-66
2024/01/05 00:36:03;;;;;;;8.53;3.83;;;9.40;99.90;;;;;;5011727;28;20798;-67
2024/01/05 00:38:29;;;;;;;9.00;3.47;;;9.50;99.90;;;;;;5014966;28;20168;-66
2024/01/05 00:40:55;;;;;;;7.57;3.63;;;9.40;99.90;;;;;;5009088;28;20435;-67
2024/01/05 00:43:20;;;;;;;8.87;4.00;;;9.40;99.90;;;;;;5008370;28;20622;-67
2024/01/05 00:45:46;;;;;;;10.07;4.60;;;9.30;99.90;;;;;;5009685;28;20189;-67
2024/01/05 00:48:11;;;;;;;8.63;4.13;;;9.30;99.90;;;;;;5008829;28;20192;-67
2024/01/05 00:50:37;;;;;;;13.67;4.37;;;9.30;99.90;;;;;;5011148;28;20184;-67
2024/01/05 00:53:03;;;;;;;8.13;3.80;;;9.30;99.90;;;;;;5016773;28;20686;-67
2024/01/05 00:55:28;;;;;;;5.77;3.17;;;9.30;99.90;;;;;;5011948;28;20575;-67
2024/01/05 00:57:54;;;;;;;10.47;4.50;;;9.30;99.90;;;;;;5008228;28;20185;-67
2024/01/05 01:00:19;;;;;;;7.20;3.93;;;9.30;99.90;;;;;;5010431;28;20193;-67
2024/01/05 01:02:45;;;;;;;8.43;3.90;;;9.30;99.90;;;;;;5013032;28;20178;-66
2024/01/05 01:05:11;;;;;;;16.90;4.37;;;9.30;99.90;;;;;;5011670;28;20184;-66
2024/01/05 01:07:38;;;;;;;10.93;5.00;;;9.30;99.90;;;;;;5010997;28;20791;-65
2024/01/05 01:10:04;;;;;;;11.93;5.43;;;9.30;99.90;;;;;;5012780;28;20331;-66
2024/01/05 01:12:30;;;;;;;9.00;4.20;;;9.30;99.90;;;;;;5010110;28;20420;-66
2024/01/05 01:14:56;;;;;;;9.00;4.50;;;9.30;99.90;;;;;;5012146;28;20464;-66
2024/01/05 01:17:22;;;;;;;7.30;3.90;;;9.30;99.90;;;;;;5015508;28;20185;-66
2024/01/05 01:19:48;;;;;;;7.50;3.90;;;9.30;99.90;;;;;;5015353;28;20260;-66
2024/01/05 01:22:13;;;;;;;6.80;4.30;;;9.30;99.90;;;;;;5015788;28;20443;-66
2024/01/05 01:24:39;;;;;;;10.60;4.27;;;9.20;99.90;;;;;;5015815;28;20888;-66
2024/01/05 01:27:05;;;;;;;10.23;4.17;;;9.20;99.90;;;;;;5017931;28;20244;-66
2024/01/05 01:29:30;;;;;;;10.97;4.90;;;9.20;99.90;;;;;;5019538;28;20176;-66
2024/01/05 01:31:56;;;;;;;10.40;4.30;;;9.20;99.90;;;;;;5015601;28;20177;-66
2024/01/05 01:34:22;;;;;;;11.03;4.90;;;9.20;99.90;;;;;;5011671;28;20236;-67
2024/01/05 01:36:49;;;;;;;8.00;4.97;;;9.20;99.90;;;;;;5011691;28;20199;-67
2024/01/05 01:39:15;;;;;;;12.13;4.70;;;9.20;99.90;;;;;;5013784;28;20451;-67
2024/01/05 01:41:41;;;;;;;8.87;4.63;;;9.10;99.90;;;;;;5019725;28;20473;-67
2024/01/05 01:44:07;;;;;;;9.40;4.53;;;9.10;99.90;;;;;;5017232;28;20200;-67
2024/01/05 01:46:36;;;;;;;11.63;4.53;;;9.10;99.90;;;;;;5021469;28;20421;-66
2024/01/05 01:49:03;;;;;;;13.13;5.03;;;9.10;99.90;;;;;;5014685;28;20235;-66
2024/01/05 01:51:31;;;;;;;8.37;4.70;;;9.10;99.90;;;;;;5016867;28;20521;-66
2024/01/05 01:53:58;;;;;;;8.40;4.43;;;9.10;99.90;;;;;;5020192;28;20470;-66
2024/01/05 01:56:24;;;;;;;9.60;4.07;;;9.10;99.90;;;;;;5017390;28;20532;-67
2024/01/05 01:58:49;;;;;;;10.27;4.60;;;9.10;99.90;;;;;;5019509;28;20411;-66
2024/01/05 02:01:15;;;;;;;9.37;4.70;;;9.10;99.90;;;;;;5015515;28;20211;-66
2024/01/05 02:03:41;;;;;;;9.93;4.80;;;9.10;99.90;;;;;;5015583;28;20276;-66
2024/01/05 02:06:06;;;;;;;7.73;5.10;;;9.10;99.90;;;;;;5019027;28;20185;-66
2024/01/05 02:08:33;;;;;;;8.60;4.20;;;9.00;99.90;;;;;;5020080;28;20277;-66
2024/01/05 02:10:58;;;;;;;9.07;4.33;;;9.00;99.90;;;;;;5014527;28;20192;-66
2024/01/05 02:13:24;;;;;;;8.47;5.63;;;9.00;99.90;;;;;;5018408;28;20438;-66
2024/01/05 02:15:50;;;;;;;12.40;5.20;;;9.00;99.90;;;;;;5017518;28;20216;-66
2024/01/05 02:18:15;;;;;;;10.37;5.47;;;9.00;99.90;;;;;;5014693;28;20651;-66
2024/01/05 02:20:46;;;;;;;12.03;4.80;;;9.00;99.90;;;;;;5017997;28;20180;-66
2024/01/05 02:23:23;;;;;;;11.40;4.90;;;8.90;99.90;;;;;;5011824;28;20292;-66
2024/01/05 02:25:49;;;;;;;9.73;4.47;;;8.90;99.90;;;;;;5012386;28;20893;-66
2024/01/05 02:28:15;;;;;;;12.67;4.47;;;8.90;99.90;;;;;;5015690;28;20419;-66
2024/01/05 02:30:41;;;;;;;9.13;4.70;;;8.90;99.90;;;;;;5017608;28;20423;-66
2024/01/05 02:33:06;;;;;;;7.63;5.20;;;8.90;99.90;;;;;;5019606;28;20212;-66
2024/01/05 02:35:32;;;;;;;21.80;5.13;;;8.80;99.90;;;;;;5014541;28;20335;-66
2024/01/05 02:37:57;;;;;;;7.27;4.50;;;8.80;99.90;;;;;;5019042;28;20184;-66
2024/01/05 02:40:23;;;;;;;9.17;4.40;;;8.80;99.90;;;;;;5024321;28;20600;-66
2024/01/05 02:42:48;;;;;;;11.07;4.83;;;8.80;99.90;;;;;;5025882;28;20199;-66
2024/01/05 02:45:20;;;;;;;10.47;4.13;;;8.80;99.90;;;;;;5015722;28;20244;-66
2024/01/05 02:47:49;;;;;;;8.57;4.43;;;8.70;99.90;;;;;;5017265;28;20506;-66
2024/01/05 02:50:15;;;;;;;15.83;5.37;;;8.70;99.90;;;;;;5013356;28;20444;-66
2024/01/05 02:52:41;;;;;;;13.00;4.97;;;8.70;99.90;;;;;;5017090;28;20450;-66
2024/01/05 02:55:07;;;;;;;9.43;5.23;;;8.70;99.90;;;;;;5012301;28;20464;-66
2024/01/05 02:57:33;;;;;;;11.90;5.27;;;8.70;99.90;;;;;;5022307;28;20259;-66
2024/01/05 02:59:58;;;;;;;10.50;4.87;;;8.70;99.90;;;;;;5015372;28;20523;-67
2024/01/05 03:02:24;;;;;;;9.70;4.47;;;8.70;99.90;;;;;;5018506;28;20192;-67
2024/01/05 03:04:51;;;;;;;9.07;5.10;;;8.70;99.90;;;;;;5015626;28;20254;-67
2024/01/05 03:07:17;;;;;;;10.93;4.70;;;8.70;99.90;;;;;;5011773;28;20184;-67
2024/01/05 03:09:43;;;;;;;10.13;5.17;;;8.70;99.90;;;;;;5020730;28;20411;-67
2024/01/05 03:12:08;;;;;;;11.63;5.17;;;8.70;99.90;;;;;;5014786;28;20193;-67
2024/01/05 03:14:34;;;;;;;11.67;5.10;;;8.70;99.90;;;;;;5014547;28;20286;-67
2024/01/05 03:17:00;;;;;;;12.17;4.80;;;8.70;99.90;;;;;;5015638;28;20192;-67
2024/01/05 03:19:25;;;;;;;8.53;4.40;;;8.60;99.90;;;;;;5015946;28;20173;-67
2024/01/05 03:21:51;;;;;;;8.70;5.20;;;8.60;99.90;;;;;;5009321;28;20551;-67
2024/01/05 03:24:16;;;;;;;9.30;5.63;;;8.60;99.90;;;;;;5015703;28;20196;-67
2024/01/05 03:26:45;;;;;;;9.40;5.50;;;8.60;99.90;;;;;;5014110;28;20371;-68
2024/01/05 03:29:10;;;;;;;9.83;4.20;;;8.60;99.90;;;;;;5014770;28;20184;-67
2024/01/05 03:31:36;;;;;;;9.43;5.00;;;8.60;99.90;;;;;;5012834;28;20452;-67
2024/01/05 03:34:02;;;;;;;9.57;4.30;;;8.60;99.90;;;;;;5011197;28;20284;-67
2024/01/05 03:36:27;;;;;;;8.70;4.50;;;8.60;99.90;;;;;;5015618;28;20200;-67
2024/01/05 03:38:54;;;;;;;11.97;4.80;;;8.60;99.90;;;;;;5015176;28;20693;-67
2024/01/05 03:41:20;;;;;;;6.30;3.87;;;8.70;99.90;;;;;;5015106;28;20279;-67
2024/01/05 03:43:45;;;;;;;8.20;4.17;;;8.70;99.90;;;;;;5015022;28;20447;-67
2024/01/05 03:46:12;;;;;;;9.17;5.00;;;8.70;99.90;;;;;;5015176;28;20425;-67
2024/01/05 03:48:38;;;;;;;13.27;5.60;;;8.70;99.90;;;;;;5013373;28;20192;-67
2024/01/05 03:51:04;;;;;;;7.40;3.60;;;8.70;99.90;;;;;;5017411;28;20425;-67
2024/01/05 03:53:30;;;;;;;8.47;4.23;;;8.80;99.90;;;;;;5010777;28;20466;-67
2024/01/05 03:55:59;;;;;;;6.20;3.40;;;8.80;99.90;;;;;;5014651;28;20470;-67
2024/01/05 03:58:25;;;;;;;8.40;4.07;;;8.80;99.90;;;;;;5011181;28;20180;-67
2024/01/05 04:00:51;;;;;;;12.93;3.93;;;8.80;99.90;;;;;;5018747;28;20505;-67
2024/01/05 04:03:19;;;;;;;7.07;4.20;;;8.80;99.90;;;;;;5015017;28;20568;-67
2024/01/05 04:05:45;;;;;;;7.43;3.60;;;8.80;99.90;;;;;;5013967;28;20186;-67
2024/01/05 04:08:11;;;;;;;6.80;3.77;;;8.80;99.90;;;;;;5015671;28;20975;-67
2024/01/05 04:10:37;;;;;;;9.07;4.17;;;8.80;99.90;;;;;;5014687;28;20235;-67
2024/01/05 04:13:03;;;;;;;9.27;3.77;;;8.80;99.90;;;;;;5015639;28;20205;-67
2024/01/05 04:15:30;;;;;;;7.10;3.40;;;8.80;99.90;;;;;;5013526;28;20466;-67
2024/01/05 04:17:56;;;;;;;5.83;3.77;;;8.80;99.90;;;;;;5014818;28;20670;-67
2024/01/05 04:20:21;;;;;;;7.63;3.50;;;8.90;99.90;;;;;;5015106;28;20427;-67
2024/01/05 04:22:47;;;;;;;5.53;3.40;;;8.90;99.90;;;;;;5018024;28;20181;-67
2024/01/05 04:25:13;;;;;;;7.43;3.40;;;8.90;99.90;;;;;;5016274;28;20184;-67
2024/01/05 04:27:38;;;;;;;9.60;3.40;;;8.90;99.90;;;;;;5015471;28;20189;-67
2024/01/05 04:30:05;;;;;;;8.10;3.57;;;8.90;99.90;;;;;;5018841;28;20679;-67
2024/01/05 04:32:31;;;;;;;7.37;3.20;;;9.00;99.90;;;;;;5018939;28;20267;-67
2024/01/05 04:34:56;;;;;;;5.67;3.40;;;9.00;99.90;;;;;;5015916;28;20561;-67
2024/01/05 04:37:22;;;;;;;6.00;2.77;;;9.00;99.90;;;;;;5012812;28;20221;-67
2024/01/05 04:39:47;;;;;;;9.47;3.77;;;9.00;99.90;;;;;;5011470;28;20176;-67
2024/01/05 04:42:14;;;;;;;6.90;2.90;;;9.10;99.90;;;;;;5016309;28;20264;-67
2024/01/05 04:44:40;;;;;;;7.10;2.90;;;9.10;99.90;;;;;;5010179;28;20237;-67
2024/01/05 04:47:05;;;;;;;6.60;3.37;;;9.10;99.90;;;;;;5012444;28;20420;-67
2024/01/05 04:49:33;;;;;;;5.43;3.33;;;9.10;99.90;;;;;;5009344;28;20177;-67
2024/01/05 04:51:59;;;;;;;6.50;3.23;;;9.10;99.90;;;;;;5016767;28;20647;-67
2024/01/05 04:54:25;;;;;;;5.60;2.53;;;9.10;99.90;;;;;;5011855;28;20444;-67
2024/01/05 04:56:51;;;;;;;7.70;2.90;;;9.10;99.90;;;;;;5015431;28;20502;-67
2024/01/05 04:59:16;;;;;;;5.43;2.60;;;9.10;99.90;;;;;;5018319;28;20184;-67
2024/01/05 05:01:42;;;;;;;6.27;2.50;;;9.10;99.90;;;;;;5013207;28;20260;-67
2024/01/05 05:04:07;;;;;;;7.23;3.03;;;9.10;99.90;;;;;;5011699;28;20227;-67
2024/01/05 05:06:33;;;;;;;11.90;3.40;;;9.20;99.90;;;;;;5011463;28;20447;-67
2024/01/05 05:08:59;;;;;;;8.13;3.60;;;9.20;99.90;;;;;;5010772;28;20193;-67
2024/01/05 05:11:24;;;;;;;8.90;3.00;;;9.10;99.90;;;;;;5012915;28;20268;-67
2024/01/05 05:13:50;;;;;;;6.37;3.07;;;9.20;99.90;;;;;;5009643;28;20581;-67
2024/01/05 05:16:15;;;;;;;7.93;3.37;;;9.20;99.90;;;;;;5017435;28;20208;-67
2024/01/05 05:18:41;;;;;;;9.50;3.20;;;9.20;99.90;;;;;;5013482;28;20199;-67
2024/01/05 05:21:07;;;;;;;7.90;3.60;;;9.10;99.90;;;;;;5017091;28;20765;-67
2024/01/05 05:23:33;;;;;;;7.67;3.60;;;9.20;99.90;;;;;;5017879;28;20695;-68
2024/01/05 05:25:58;;;;;;;11.93;3.70;;;9.20;99.90;;;;;;5022126;28;20426;-67
2024/01/05 05:28:24;;;;;;;5.77;3.60;;;9.20;99.90;;;;;;5019582;28;20275;-67
2024/01/05 05:30:50;;;;;;;5.70;3.20;;;9.20;99.90;;;;;;5016141;28;20216;-67
2024/01/05 05:33:16;;;;;;;8.30;3.27;;;9.20;99.90;;;;;;5018077;28;20213;-67
2024/01/05 05:35:41;;;;;;;4.80;3.40;;;9.20;99.90;;;;;;5016687;28;20475;-67
2024/01/05 05:38:07;;;;;;;11.87;3.40;;;9.20;99.90;;;;;;5013284;28;20173;-67
2024/01/05 05:40:32;;;;;;;6.93;3.37;;;9.20;99.90;;;;;;5019192;28;20544;-67
2024/01/05 05:42:58;;;;;;;8.30;3.13;;;9.20;99.90;;;;;;5016900;28;20215;-67
2024/01/05 05:45:24;;;;;;;7.77;3.50;;;9.30;99.90;;;;;;5018015;28;20296;-67
2024/01/05 05:47:50;;;;;;;7.30;3.70;;;9.30;99.90;;;;;;5016779;28;21248;-67
2024/01/05 05:50:16;;;;;;;7.40;3.63;;;9.30;99.90;;;;;;5022119;28;20189;-67
2024/01/05 05:52:43;;;;;;;7.33;3.27;;;9.30;99.90;;;;;;5017059;28;20477;-67
2024/01/05 05:55:12;;;;;;;4.90;2.20;;;9.20;99.90;;;;;;5016574;28;20215;-67
2024/01/05 05:57:39;;;;;;;6.30;3.00;;;9.30;99.90;;;;;;5015509;28;20422;-67
2024/01/05 06:00:05;;;;;;;9.73;4.87;;;9.30;99.90;;;;;;5011915;28;20436;-67
2024/01/05 06:02:31;;;;;;;7.40;2.60;;;9.40;99.90;;;;;;5013982;28;20498;-67
2024/01/05 06:04:56;;;;;;;6.83;3.00;;;9.30;99.90;;;;;;5013084;28;20515;-67
2024/01/05 06:07:23;;;;;;;4.87;3.03;;;9.30;99.90;;;;;;5024341;28;20200;-67
2024/01/05 06:09:49;;;;;;;7.13;2.83;;;9.30;99.90;;;;;;5013236;28;20240;-67
2024/01/05 06:12:15;;;;;;;3.63;2.77;;;9.20;99.90;;;;;;5018541;28;20416;-67
2024/01/05 06:14:41;;;;;;;8.60;2.90;;;9.30;99.90;;;;;;5016119;28;20953;-67
2024/01/05 06:17:06;;;;;;;8.30;3.20;;;9.20;99.90;;;;;;5013094;28;20871;-67
2024/01/05 06:19:32;;;;;;;6.80;3.20;;;9.10;99.90;;;;;;5016552;28;20954;-67
2024/01/05 06:21:59;;;;;;;5.83;3.20;;;9.20;99.90;;;;;;5011800;28;20628;-67
2024/01/05 06:24:25;;;;;;;9.33;4.73;;;9.20;99.90;;;;;;5016827;28;20710;-67
2024/01/05 06:26:51;;;;;;;8.50;3.60;;;9.10;99.90;;;;;;5018269;28;20458;-67
2024/01/05 06:29:17;;;;;;;4.77;2.80;;;9.20;99.90;;;;;;5010669;28;20450;-67
2024/01/05 06:31:43;;;;;;;4.80;2.63;;;9.20;99.90;;;;;;5014360;28;20180;-67
2024/01/05 06:34:08;;;;;;;7.70;2.50;;;9.20;99.90;;;;;;5017339;28;20528;-67
2024/01/05 06:36:34;;;;;;;4.87;2.70;;;9.30;99.90;;;;;;5018857;28;20217;-67
2024/01/05 06:38:59;;;;;;;7.33;3.23;;;9.30;99.90;;;;;;5014042;28;20170;-67
2024/01/05 06:41:25;;;;;;;9.60;2.47;;;9.30;99.90;;;;;;5016960;28;20650;-67
2024/01/05 06:43:51;;;;;;;3.30;2.50;;;9.40;99.90;;;;;;5020474;28;20200;-67
2024/01/05 06:46:16;;;;;;;6.63;2.30;;;9.40;99.90;;;;;;5014469;28;20216;-67
2024/01/05 06:48:42;;;;;;;4.93;2.30;;;9.40;99.90;;;;;;5017295;28;20212;-67
2024/01/05 06:51:08;;;;;;;9.73;3.00;;;9.40;99.90;;;;;;5016341;28;20452;-67
2024/01/05 06:53:33;;;;;;;8.00;3.47;;;9.40;99.90;;;;;;5017260;28;20204;-67
2024/01/05 06:55:59;;;;;;;8.00;2.70;;;9.30;99.90;;;;;;5010504;28;20207;-67
2024/01/05 06:58:25;;;;;;;7.60;2.80;;;9.40;99.90;;;;;;5014456;28;20187;-67
2024/01/05 07:00:50;;;;;;;11.63;3.57;;;9.30;99.90;;;;;;5019697;28;20174;-67
2024/01/05 07:03:16;;;;;;;7.90;2.60;;;9.40;99.90;;;;;;5013889;28;20255;-67
2024/01/05 07:05:41;;;;;;;6.60;2.83;;;9.40;99.90;;;;;;5017620;28;20194;-67
2024/01/05 07:08:07;;;;;;;7.00;2.90;;;9.30;99.90;;;;;;5017141;28;20209;-67
2024/01/05 07:10:33;;;;;;;7.80;3.00;;;9.30;99.90;;;;;;5015980;28;20188;-67
2024/01/05 07:12:59;;;;;;;7.40;2.80;;;9.30;99.90;;;;;;5015024;28;20420;-67
2024/01/05 07:15:25;;;;;;;6.47;3.80;;;9.30;99.90;;;;;;5014091;28;21111;-67
2024/01/05 07:17:50;;;;;;;9.40;3.47;;;9.20;99.90;;;;;;5016052;28;20211;-67
2024/01/05 07:20:16;;;;;;;5.57;3.37;;;9.20;99.90;;;;;;5013377;28;20263;-67
2024/01/05 07:22:41;;;;;;;5.30;3.40;;;9.20;99.90;;;;;;5011199;28;20296;-67
2024/01/05 07:25:10;;;;;;;7.20;3.93;;;9.20;99.90;;;;;;5012264;28;20205;-67
2024/01/05 07:27:37;;;;;;;5.40;3.20;;;9.20;99.90;;;;;;5012021;28;20212;-67
2024/01/05 07:30:06;;;;;;;5.53;3.00;;;9.20;99.90;;;;;;5013160;28;20420;-67
2024/01/05 07:32:31;;;;;;;9.07;3.27;;;9.20;99.90;;;;;;5010854;28;20486;-67
2024/01/05 07:34:57;;;;;;;4.90;2.93;;;9.20;99.90;;;;;;5006660;28;20823;-67
2024/01/05 07:37:22;;;;;;;6.17;3.50;;;9.20;99.90;;;;;;5008887;28;21025;-67
2024/01/05 07:39:48;;;;;;;7.67;3.50;;;9.20;99.90;;;;;;5015496;28;20177;-67
2024/01/05 07:42:14;;;;;;;7.43;3.13;;;9.10;99.90;;;;;;5024635;28;20176;-67
2024/01/05 07:44:39;;;;;;;5.60;2.87;;;9.20;99.90;;;;;;5015769;28;20203;-67
2024/01/05 07:47:05;;;;;;;7.57;3.50;;;9.20;99.90;;;;;;5022475;28;20181;-67
2024/01/05 07:49:30;;;;;;;6.87;2.90;;;9.10;99.90;;;;;;5015694;28;20177;-67
2024/01/05 07:51:56;;;;;;;7.13;3.30;;;9.10;99.90;;;;;;5018417;28;20222;-67
2024/01/05 07:54:22;;;;;;;5.87;3.20;;;9.10;99.90;;;;;;5015420;28;20201;-67
2024/01/05 07:56:47;;;;;;;6.90;3.10;;;9.10;99.90;;;;;;5018019;28;20205;-67
2024/01/05 07:59:15;;;;;;;11.73;2.93;;;9.10;99.90;;;;;;5015536;28;20191;-67
2024/01/05 08:01:41;;;;;;;9.70;3.10;;;9.20;99.90;;;;;;5019765;28;20184;-67
2024/01/05 08:04:07;;;;;;;6.00;3.40;;;9.20;99.90;;;;;;5014309;28;20447;-67
2024/01/05 08:06:33;;;;;;;7.37;4.20;;;9.20;99.90;;;;;;5018102;28;20420;-67
2024/01/05 08:08:59;;;;;;;5.50;3.17;;;9.20;99.90;;;;;;5020963;28;21169;-67
2024/01/05 08:11:24;;;;;;;4.77;2.90;;;9.20;99.90;;;;;;5018396;28;20196;-67
2024/01/05 08:13:51;;;;;;;7.03;3.07;;;9.20;99.90;;;;;;5016207;28;20196;-67
2024/01/05 08:16:17;;;;;;;7.27;2.83;;;9.20;99.90;;;;;;5016735;28;20208;-67
2024/01/05 08:18:43;;;;;;;6.60;2.90;;;9.30;99.90;;;;;;5009843;28;20436;-67
2024/01/05 08:21:09;;;;;;;5.53;2.83;;;9.30;99.90;;;;;;5014604;28;20871;-67
2024/01/05 08:23:36;;;;;;;8.97;2.97;;;9.40;99.90;;;;;;5011232;28;20905;-67
2024/01/05 08:26:03;;;;;;;6.70;3.13;;;9.40;99.90;;;;;;5014344;28;20597;-67
2024/01/05 08:28:30;;;;;;;5.97;3.13;;;9.40;99.90;;;;;;5011789;28;20538;-67
2024/01/05 08:30:56;;;;;;;5.83;3.10;;;9.50;99.90;;;;;;5016389;28;20471;-67
2024/01/05 08:33:22;;;;;;;11.13;3.23;;;9.50;99.90;;;;;;5008223;28;20451;-67
2024/01/05 08:35:47;;;;;;;5.47;3.03;;;9.50;99.90;;;;;;5011061;28;20571;-67
2024/01/05 08:38:14;;;;;;;4.13;3.00;;;9.50;99.90;;;;;;5017666;28;20185;-67
2024/01/05 08:40:40;;;;;;;4.70;3.27;;;9.50;99.90;;;;;;5017396;28;20199;-67
2024/01/05 08:43:05;;;;;;;6.93;2.67;;;9.60;99.90;;;;;;5011537;28;20442;-67
2024/01/05 08:45:32;;;;;;;9.73;3.10;;;9.70;99.90;;;;;;5013674;28;20763;-67
2024/01/05 08:47:59;;;;;;;6.90;2.57;;;9.60;99.90;;;;;;5011494;28;20177;-67
2024/01/05 08:50:25;;;;;;;8.20;3.30;;;9.60;99.90;;;;;;5012837;28;20424;-67
2024/01/05 08:52:50;;;;;;;6.30;3.07;;;9.70;99.90;;;;;;5014750;28;20408;-67
2024/01/05 08:55:17;;;;;;;8.20;2.90;;;9.70;99.90;;;;;;5017018;28;20209;-67
2024/01/05 08:57:43;;;;;;;6.83;3.20;;;9.70;99.90;;;;;;5017876;28;20179;-67
2024/01/05 09:00:12;;;;;;;8.87;3.20;;;9.80;99.90;;;;;;5018468;28;20498;-67
2024/01/05 09:02:38;;;;;;;8.13;2.67;;;9.80;99.90;;;;;;5017491;28;20204;-67
2024/01/05 09:05:04;;;;;;;5.60;2.83;;;9.80;99.90;;;;;;5013502;28;20491;-67
2024/01/05 09:07:33;;;;;;;6.33;2.63;;;9.80;99.90;;;;;;5022453;28;20205;-67
2024/01/05 09:09:59;;;;;;;8.77;3.27;;;9.90;99.90;;;;;;5016367;28;20886;-67
2024/01/05 09:12:24;;;;;;;17.00;3.70;;;9.90;99.90;;;;;;5014318;28;20469;-67
2024/01/05 09:14:50;;;;;;;5.13;3.13;;;9.90;99.90;;;;;;5017810;28;20208;-67
2024/01/05 09:17:16;;;;;;;5.93;2.53;;;10.00;99.90;;;;;;5014881;28;20671;-67
2024/01/05 09:19:42;;;;;;;8.63;2.97;;;10.10;99.90;;;;;;5020351;28;20177;-67
2024/01/05 09:22:08;;;;;;;6.93;3.10;;;10.20;99.90;;;;;;5018985;28;20442;-67
2024/01/05 09:24:34;;;;;;;5.17;3.00;;;10.30;99.90;;;;;;5015683;28;20463;-67
2024/01/05 09:27:02;;;;;;;9.63;3.20;;;10.30;99.90;;;;;;5019175;28;20662;-67
2024/01/05 09:29:29;;;;;;;5.00;2.63;;;10.40;99.90;;;;;;5023527;28;20184;-67
2024/01/05 09:31:55;;;;;;;6.73;2.93;;;10.40;99.90;;;;;;5019856;28;20418;-67
2024/01/05 09:34:21;;;;;;;4.90;2.40;;;10.40;99.90;;;;;;5021563;28;20850;-67
2024/01/05 09:36:47;;;;;;;7.70;2.77;;;10.40;99.90;;;;;;5019049;28;20247;-67
2024/01/05 09:39:13;;;;;;;5.17;2.90;;;10.50;99.90;;;;;;5015168;28;20259;-67
2024/01/05 09:41:41;;;;;;;7.80;2.73;;;10.50;99.90;;;;;;5017382;28;20584;-67
2024/01/05 09:44:07;;;;;;;7.77;3.07;;;10.60;99.90;;;;;;5020760;28;20454;-68
2024/01/05 09:46:33;;;;;;;5.73;2.50;;;10.60;99.90;;;;;;5017646;28;20408;-67
2024/01/05 09:49:01;;;;;;;5.30;2.57;;;10.70;99.90;;;;;;5014164;28;21052;-67
2024/01/05 09:51:30;;;;;;;4.50;2.73;;;10.70;99.90;;;;;;5017612;28;20435;-67
2024/01/05 09:53:55;;;;;;;5.03;2.90;;;10.70;99.90;;;;;;5014499;28;20930;-67
2024/01/05 09:56:25;;;;;;;8.13;3.90;;;10.70;99.90;;;;;;5019566;28;20467;-67
2024/01/05 09:58:51;;;;;;;4.70;2.60;;;10.80;99.90;;;;;;5011265;28;20173;-67
2024/01/05 10:01:28;;;;;;;6.60;3.23;;;10.70;99.90;;;;;;5017503;28;20795;-67
2024/01/05 10:03:55;;;;;;;3.93;2.70;;;10.80;99.90;;;;;;5009423;28;20435;-67
2024/01/05 10:06:21;;;;;;;5.80;3.40;;;10.70;99.90;;;;;;5014126;28;20459;-67
2024/01/05 10:08:50;;;;;;;5.53;2.90;;;10.80;99.90;;;;;;5011663;28;20907;-67
2024/01/05 10:11:31;;;;;;;5.20;2.73;;;10.80;99.90;;;;;;5017216;28;21006;-68
2024/01/05 10:14:02;;;;;;;6.60;4.47;;;10.90;99.90;;;;;;5013677;28;20810;-67
2024/01/05 10:16:36;;;;;;;4.90;2.77;;;11.00;99.90;;;;;;5011390;28;20455;-67
2024/01/05 10:19:16;;;;;;;6.10;2.87;;;11.00;99.90;;;;;;5010955;28;20436;-67
2024/01/05 10:21:46;;;;;;;5.97;2.73;;;11.10;99.90;;;;;;5013223;28;20471;-67
2024/01/05 10:24:21;;;;;;;7.47;2.53;;;11.30;99.90;;;;;;5008804;28;21064;-67
2024/01/05 10:27:00;;;;;;;5.53;2.47;;;11.30;99.90;;;;;;5021804;28;20414;-67
2024/01/05 10:29:25;;;;;;;5.60;3.10;;;11.50;99.90;;;;;;5017582;28;20435;-67
2024/01/05 10:31:51;;;;;;;3.80;2.40;;;11.50;99.90;;;;;;5015856;28;20426;-67
2024/01/05 10:34:17;;;;;;;6.47;3.00;;;11.40;99.90;;;;;;5023152;28;20702;-67
2024/01/05 10:36:43;;;;;;;5.00;2.70;;;11.60;99.90;;;;;;5019314;28;20463;-67
2024/01/05 10:39:09;;;;;;;3.17;2.23;;;11.80;99.90;;;;;;5016496;28;20192;-67
2024/01/05 10:41:34;;;;;;;6.13;2.37;;;11.80;99.90;;;;;;5020734;28;20193;-67
2024/01/05 10:44:02;;;;;;;4.43;2.07;;;11.80;99.90;;;;;;5014407;28;20564;-67
2024/01/05 10:46:30;;;;;;;5.47;2.57;;;11.80;99.90;;;;;;5020010;28;20180;-67
2024/01/05 10:48:56;;;;;;;4.17;2.53;;;11.80;99.90;;;;;;5015537;28;20442;-68
2024/01/05 10:51:25;;;;;;;5.20;2.40;;;11.90;99.90;;;;;;5016883;28;20429;-67
2024/01/05 10:53:52;;;;;;;4.20;2.30;;;11.90;99.90;;;;;;5010352;28;20455;-67
2024/01/05 10:56:21;;;;;;;4.23;2.50;;;12.00;99.90;;;;;;5009949;28;20471;-68
2024/01/05 10:58:50;;;;;;;4.23;2.60;;;12.00;99.90;;;;;;5011739;28;20408;-67
2024/01/05 11:01:19;;;;;;;8.03;2.50;;;12.00;99.90;;;;;;5013947;28;20485;-67
2024/01/05 11:03:48;;;;;;;6.43;2.17;;;11.80;99.90;;;;;;5012437;28;20818;-67
2024/01/05 11:06:15;;;;;;;5.17;2.53;;;11.90;99.90;;;;;;5014002;28;20420;-67
2024/01/05 11:09:05;;;;;;;4.30;2.43;;;11.90;99.90;;;;;;5014262;28;20447;-67
2024/01/05 11:11:48;;;;;;;5.10;2.80;;;11.90;99.90;;;;;;5014702;28;20475;-68
2024/01/05 11:14:17;;;;;;;4.33;2.50;;;11.90;99.90;;;;;;5013933;28;20534;-67
2024/01/05 11:16:59;;;;;;;4.87;2.70;;;11.90;99.90;;;;;;5009655;28;20529;-68
2024/01/05 11:20:12;;;;;;;6.57;2.57;;;12.00;99.90;;;;;;5016719;28;20522;-67
2024/01/05 11:22:42;;;;;;;5.60;2.50;;;12.00;99.90;;;;;;5013921;28;20452;-67
2024/01/05 11:25:08;;;;;;;6.40;3.37;;;12.00;99.90;;;;;;5009267;28;20455;-67
2024/01/05 11:27:35;;;;;;;4.80;2.63;;;12.10;99.90;;;;;;5011488;28;20416;-67
2024/01/05 11:30:04;;;;;;;5.10;2.50;;;12.10;99.90;;;;;;5014934;28;20835;-67
2024/01/05 11:32:45;;;;;;;5.23;2.63;;;12.10;99.90;;;;;;5010381;28;20882;-67
2024/01/05 11:35:16;;;;;;;5.00;2.57;;;12.10;99.90;;;;;;5019321;28;21268;-67
2024/01/05 11:37:43;;;;;;;6.03;2.90;;;12.10;99.90;;;;;;5019051;28;20423;-67
2024/01/05 11:40:27;;;;;;;5.60;2.63;;;12.10;99.90;;;;;;5015778;28;20510;-67
2024/01/05 11:42:54;;;;;;;4.87;2.80;;;12.00;99.90;;;;;;5017634;28;20411;-68
2024/01/05 11:45:41;;;;;;;8.33;2.77;;;12.10;99.90;;;;;;5016836;28;20917;-67
2024/01/05 11:48:08;;;;;;;3.80;2.27;;;12.00;99.90;;;;;;5013836;28;20829;-67
2024/01/05 11:50:35;;;;;;;5.27;2.40;;;12.10;99.90;;;;;;5015871;28;20435;-67
2024/01/05 11:53:15;;;;;;;4.50;2.60;;;11.90;99.90;;;;;;5016927;28;20416;-67
2024/01/05 11:55:56;;;;;;;6.57;2.30;;;12.00;99.90;;;;;;5013623;28;20957;-67
2024/01/05 11:58:27;;;;;;;4.70;2.50;;;12.00;99.90;;;;;;5010360;28;20480;-67
2024/01/05 12:00:55;;;;;;;5.37;2.77;;;12.10;99.90;;;;;;5014383;28;20917;-68
2024/01/05 12:03:24;;;;;;;5.33;3.17;;;12.10;99.90;;;;;;5014632;28;20440;-67
2024/01/05 12:05:52;;;;;;;6.57;2.40;;;12.10;99.90;;;;;;5015832;28;20420;-67
2024/01/05 12:08:18;;;;;;;9.23;3.00;;;12.20;99.90;;;;;;5017411;28;20508;-67
2024/01/05 12:10:43;;;;;;;5.53;3.07;;;12.20;99.90;;;;;;5013291;28;20466;-67
2024/01/05 12:13:09;;;;;;;6.50;2.50;;;12.10;99.90;;;;;;5014348;28;20876;-67
2024/01/05 12:15:38;;;;;;;7.43;2.80;;;12.10;99.90;;;;;;5012784;28;20215;-67
2024/01/05 12:18:08;;;;;;;5.90;2.77;;;12.10;99.90;;;;;;5012657;28;20295;-67
2024/01/05 12:20:34;;;;;;;5.63;2.50;;;12.10;99.90;;;;;;5013238;28;20417;-67
2024/01/05 12:22:59;;;;;;;7.53;3.20;;;12.00;99.90;;;;;;5011757;28;20415;-67
2024/01/05 12:25:26;;;;;;;10.87;3.40;;;12.10;99.90;;;;;;5012822;28;20906;-67
2024/01/05 12:27:52;;;;;;;4.60;2.50;;;12.10;99.90;;;;;;5011302;28;20184;-67
2024/01/05 12:30:18;;;;;;;4.57;2.90;;;12.00;99.90;;;;;;5016184;28;20419;-67
2024/01/05 12:32:45;;;;;;;5.17;2.57;;;12.00;99.90;;;;;;5014715;28;20518;-67
2024/01/05 12:35:11;;;;;;;5.40;2.87;;;12.10;99.90;;;;;;5007080;28;20471;-67
2024/01/05 12:37:37;;;;;;;5.00;2.33;;;12.20;99.90;;;;;;5012615;28;21203;-67
2024/01/05 12:40:10;;;;;;;3.70;2.40;;;12.30;99.90;;;;;;5016635;28;20267;-67
2024/01/05 12:42:39;;;;;;;6.27;3.03;;;12.40;99.90;;;;;;5022132;28;20411;-67
2024/01/05 12:45:08;;;;;;;3.97;2.73;;;12.40;99.90;;;;;;5011003;28;20541;-67
2024/01/05 12:47:34;;;;;;;5.60;3.03;;;12.50;99.90;;;;;;5011897;28;21183;-67
2024/01/05 12:50:01;;;;;;;7.70;2.77;;;12.60;99.90;;;;;;5006895;28;20826;-68
2024/01/05 12:52:37;;;;;;;5.53;3.10;;;12.60;99.90;;;;;;5012841;28;20565;-67